createdAt,value
2018-06-30T00:01:32.548Z,17.90
2018-06-30T00:04:00.827Z,17.90
2018-06-30T00:06:29.115Z,17.80
2018-06-30T00:08:57.615Z,17.80
2018-06-30T00:11:25.988Z,17.80
2018-06-30T00:13:54.792Z,17.70
2018-06-30T00:16:23.088Z,17.80
2018-06-30T00:18:51.356Z,17.80
2018-06-30T00:21:19.663Z,17.80
2018-06-30T00:23:47.940Z,17.70
2018-06-30T00:26:16.211Z,17.70
2018-06-30T00:28:44.470Z,17.60
2018-06-30T00:31:12.752Z,17.60
2018-06-30T00:33:44.008Z,17.50
2018-06-30T00:36:12.289Z,17.50
2018-06-30T00:38:40.545Z,17.40
2018-06-30T00:41:08.793Z,17.40
2018-06-30T00:43:37.064Z,17.40
2018-06-30T00:46:05.312Z,17.40
2018-06-30T00:48:33.641Z,17.30
2018-06-30T00:51:01.856Z,17.30
2018-06-30T00:53:30.136Z,17.20
2018-06-30T00:55:58.401Z,17.20
2018-06-30T00:58:26.672Z,17.10
2018-06-30T01:00:54.948Z,17.10
2018-06-30T01:03:23.211Z,17.00
2018-06-30T01:05:51.470Z,17.00
2018-06-30T01:08:19.736Z,16.90
2018-06-30T01:10:47.997Z,16.90
2018-06-30T01:13:16.258Z,16.90
2018-06-30T01:15:44.524Z,16.80
2018-06-30T01:18:12.791Z,16.90
2018-06-30T01:20:41.061Z,16.80
2018-06-30T01:23:09.350Z,16.70
2018-06-30T01:25:37.604Z,16.70
2018-06-30T01:28:06.116Z,16.60
2018-06-30T01:30:34.392Z,16.50
2018-06-30T01:33:02.669Z,16.50
2018-06-30T01:35:30.943Z,16.50
2018-06-30T01:37:59.205Z,16.40
2018-06-30T01:40:27.494Z,16.40
2018-06-30T01:42:55.749Z,16.40
2018-06-30T01:45:24.016Z,16.40
2018-06-30T01:47:52.289Z,16.40
2018-06-30T01:50:20.552Z,16.40
2018-06-30T01:52:48.810Z,16.30
2018-06-30T01:55:17.068Z,16.30
2018-06-30T01:57:45.326Z,16.30
2018-06-30T02:00:13.593Z,16.30
2018-06-30T02:02:41.869Z,16.20
2018-06-30T02:05:10.145Z,16.20
2018-06-30T02:07:38.436Z,16.20
2018-06-30T02:10:06.680Z,16.20
2018-06-30T02:12:34.974Z,16.10
2018-06-30T02:15:03.289Z,16.10
2018-06-30T02:17:31.598Z,16.00
2018-06-30T02:19:59.845Z,16.00
2018-06-30T02:22:28.104Z,16.00
2018-06-30T02:24:56.382Z,16.00
2018-06-30T02:27:24.635Z,16.00
2018-06-30T02:29:52.901Z,16.00
2018-06-30T02:32:21.177Z,16.00
2018-06-30T02:34:49.411Z,16.00
2018-06-30T02:37:17.716Z,16.00
2018-06-30T02:39:45.981Z,16.00
2018-06-30T02:42:14.262Z,15.90
2018-06-30T02:44:42.549Z,15.90
2018-06-30T02:47:10.832Z,15.90
2018-06-30T02:49:39.173Z,15.90
2018-06-30T02:52:07.434Z,15.80
2018-06-30T02:54:35.717Z,15.80
2018-06-30T02:57:03.976Z,15.80
2018-06-30T02:59:32.254Z,15.80
2018-06-30T03:02:00.504Z,15.80
2018-06-30T03:04:28.777Z,15.80
2018-06-30T03:06:57.061Z,15.70
2018-06-30T03:09:25.317Z,15.70
2018-06-30T03:11:53.579Z,15.80
2018-06-30T03:14:21.829Z,15.70
2018-06-30T03:16:50.133Z,15.70
2018-06-30T03:19:18.384Z,15.70
2018-06-30T03:21:46.657Z,15.70
2018-06-30T03:24:14.963Z,15.70
2018-06-30T03:26:43.252Z,15.70
2018-06-30T03:29:11.513Z,15.60
2018-06-30T03:31:39.948Z,15.60
2018-06-30T03:34:08.043Z,15.60
2018-06-30T03:36:36.300Z,15.60
2018-06-30T03:39:06.912Z,15.60
2018-06-30T03:41:35.197Z,15.60
2018-06-30T03:44:03.568Z,15.60
2018-06-30T03:46:31.858Z,15.70
2018-06-30T03:49:00.123Z,15.70
2018-06-30T03:51:28.410Z,15.70
2018-06-30T03:53:56.795Z,15.70
2018-06-30T03:56:25.240Z,15.80
2018-06-30T03:58:53.612Z,15.90
2018-06-30T04:01:21.881Z,16.10
2018-06-30T04:03:50.158Z,16.30
2018-06-30T04:06:18.423Z,16.40
2018-06-30T04:08:46.676Z,16.60
2018-06-30T04:11:14.959Z,16.80
2018-06-30T04:13:43.224Z,17.00
2018-06-30T04:16:11.480Z,17.20
2018-06-30T04:18:39.751Z,17.30
2018-06-30T04:21:08.022Z,17.50
2018-06-30T04:23:36.286Z,17.60
2018-06-30T04:26:04.576Z,17.70
2018-06-30T04:28:32.835Z,17.80
2018-06-30T04:31:01.102Z,17.90
2018-06-30T04:33:29.369Z,18.00
2018-06-30T04:35:57.629Z,18.10
2018-06-30T04:38:25.881Z,18.20
2018-06-30T04:40:54.140Z,18.20
2018-06-30T04:43:22.397Z,18.30
2018-06-30T04:45:50.660Z,18.30
2018-06-30T04:48:18.927Z,18.40
2018-06-30T04:50:47.193Z,18.50
2018-06-30T04:53:15.464Z,18.50
2018-06-30T04:55:43.738Z,18.60
2018-06-30T04:58:12.010Z,18.60
2018-06-30T05:00:40.277Z,18.60
2018-06-30T05:03:08.549Z,18.70
2018-06-30T05:05:36.809Z,18.80
2018-06-30T05:08:05.084Z,18.90
2018-06-30T05:10:33.353Z,18.90
2018-06-30T05:13:01.618Z,19.00
2018-06-30T05:15:29.910Z,19.00
2018-06-30T05:17:58.172Z,19.10
2018-06-30T05:20:26.463Z,19.20
2018-06-30T05:22:54.746Z,19.40
2018-06-30T05:25:23.025Z,19.50
2018-06-30T05:27:51.272Z,19.70
2018-06-30T05:30:19.552Z,19.90
2018-06-30T05:32:48.104Z,20.00
2018-06-30T05:35:16.364Z,20.20
2018-06-30T05:37:44.616Z,20.30
2018-06-30T05:40:12.906Z,20.50
2018-06-30T05:42:41.202Z,20.50
2018-06-30T05:45:09.466Z,20.50
2018-06-30T05:47:37.732Z,20.40
2018-06-30T05:50:06.001Z,20.40
2018-06-30T05:52:34.268Z,20.40
2018-06-30T05:55:02.526Z,20.40
2018-06-30T05:57:30.792Z,20.40
2018-06-30T05:59:59.053Z,20.40
2018-06-30T06:02:27.372Z,20.50
2018-06-30T06:04:55.648Z,20.50
2018-06-30T06:07:23.914Z,20.50
2018-06-30T06:09:52.196Z,20.60
2018-06-30T06:12:20.433Z,20.70
2018-06-30T06:14:48.689Z,20.80
2018-06-30T06:17:16.952Z,20.80
2018-06-30T06:19:45.684Z,20.90
2018-06-30T06:22:13.952Z,21.00
2018-06-30T06:24:42.199Z,21.10
2018-06-30T06:27:10.471Z,21.20
2018-06-30T06:29:38.733Z,21.20
2018-06-30T06:32:07.002Z,21.30
2018-06-30T06:34:35.295Z,21.40
2018-06-30T06:37:03.589Z,21.50
2018-06-30T06:39:31.939Z,21.70
2018-06-30T06:42:00.194Z,21.90
2018-06-30T06:44:28.448Z,22.00
2018-06-30T06:46:56.711Z,21.90
2018-06-30T06:49:24.966Z,22.00
2018-06-30T06:51:53.417Z,22.00
2018-06-30T06:54:21.662Z,22.10
2018-06-30T06:56:49.964Z,22.30
2018-06-30T06:59:18.225Z,22.40
2018-06-30T07:01:46.481Z,22.40
2018-06-30T07:04:14.721Z,22.60
2018-06-30T07:06:42.984Z,22.60
2018-06-30T07:09:12.099Z,22.60
2018-06-30T07:11:40.782Z,22.60
2018-06-30T07:14:09.986Z,22.50
2018-06-30T07:16:38.452Z,22.30
2018-06-30T07:19:06.705Z,22.20
2018-06-30T07:21:34.948Z,22.00
2018-06-30T07:24:03.249Z,21.90
2018-06-30T07:26:31.701Z,21.90
2018-06-30T07:28:59.773Z,21.90
2018-06-30T07:31:28.020Z,22.00
2018-06-30T07:33:56.284Z,22.00
2018-06-30T07:36:24.569Z,22.10
2018-06-30T07:38:52.889Z,22.20
2018-06-30T07:41:21.315Z,22.30
2018-06-30T07:43:49.421Z,22.40
2018-06-30T07:46:17.676Z,22.50
2018-06-30T07:48:45.936Z,22.60
2018-06-30T07:51:14.190Z,22.70
2018-06-30T07:53:42.455Z,22.80
2018-06-30T07:56:10.923Z,22.80
2018-06-30T07:58:38.989Z,22.80
2018-06-30T08:01:07.304Z,22.90
2018-06-30T08:03:35.600Z,23.20
2018-06-30T08:06:03.876Z,23.30
2018-06-30T08:08:32.134Z,23.40
2018-06-30T08:11:00.392Z,23.40
2018-06-30T08:13:28.652Z,23.40
2018-06-30T08:15:56.906Z,23.60
2018-06-30T08:18:25.162Z,23.80
2018-06-30T08:20:53.425Z,23.80
2018-06-30T08:23:21.944Z,23.80
2018-06-30T08:25:50.214Z,24.00
2018-06-30T08:28:18.529Z,24.20
2018-06-30T08:30:46.796Z,24.50
2018-06-30T08:33:15.065Z,24.70
2018-06-30T08:35:43.332Z,24.80
2018-06-30T08:38:11.600Z,24.90
2018-06-30T08:40:39.898Z,24.90
2018-06-30T08:43:08.158Z,25.00
2018-06-30T08:45:36.428Z,25.10
2018-06-30T08:48:05.212Z,25.10
2018-06-30T08:50:33.495Z,25.10
2018-06-30T08:53:01.771Z,24.80
2018-06-30T08:55:30.065Z,24.70
2018-06-30T08:57:58.321Z,24.70
2018-06-30T09:00:26.566Z,25.00
2018-06-30T09:02:54.832Z,24.90
2018-06-30T09:05:23.091Z,24.80
2018-06-30T09:07:51.368Z,24.70
2018-06-30T09:10:19.632Z,24.60
2018-06-30T09:12:47.883Z,24.50
2018-06-30T09:15:16.157Z,24.40
2018-06-30T09:17:44.412Z,24.50
2018-06-30T09:20:12.750Z,24.50
2018-06-30T09:22:40.952Z,24.40
2018-06-30T09:25:09.228Z,24.30
2018-06-30T09:27:37.475Z,24.00
2018-06-30T09:30:06.976Z,23.80
2018-06-30T09:32:35.249Z,23.90
2018-06-30T09:35:03.636Z,23.90
2018-06-30T09:37:31.888Z,24.00
2018-06-30T09:40:00.145Z,24.10
2018-06-30T09:42:28.403Z,24.30
2018-06-30T09:44:56.693Z,24.10
2018-06-30T09:47:24.969Z,24.10
2018-06-30T09:49:53.233Z,24.10
2018-06-30T09:52:21.517Z,24.00
2018-06-30T09:54:49.836Z,24.10
2018-06-30T09:57:18.102Z,24.10
2018-06-30T09:59:46.349Z,24.20
2018-06-30T10:02:14.632Z,24.10
2018-06-30T10:04:42.907Z,24.30
2018-06-30T10:07:11.207Z,24.20
2018-06-30T10:09:39.477Z,24.30
2018-06-30T10:12:07.812Z,24.20
2018-06-30T10:14:36.069Z,24.30
2018-06-30T10:17:04.350Z,24.20
2018-06-30T10:19:32.690Z,24.30
2018-06-30T10:22:00.860Z,24.40
2018-06-30T10:24:29.116Z,24.50
2018-06-30T10:26:57.376Z,24.30
2018-06-30T10:29:25.622Z,24.30
2018-06-30T10:31:53.905Z,24.20
2018-06-30T10:34:22.167Z,24.50
2018-06-30T10:36:50.427Z,24.50
2018-06-30T10:39:18.712Z,24.70
2018-06-30T10:41:46.961Z,24.80
2018-06-30T10:44:15.284Z,24.90
2018-06-30T10:46:43.545Z,24.90
2018-06-30T10:49:11.809Z,25.00
2018-06-30T10:51:40.075Z,25.00
2018-06-30T10:54:08.336Z,25.00
2018-06-30T10:56:36.633Z,25.20
2018-06-30T10:59:04.903Z,25.30
2018-06-30T11:01:33.165Z,25.50
2018-06-30T11:04:01.502Z,25.60
2018-06-30T11:06:29.724Z,25.60
2018-06-30T11:08:57.983Z,25.80
2018-06-30T11:11:26.260Z,26.00
2018-06-30T11:13:54.906Z,26.10
2018-06-30T11:16:23.143Z,26.20
2018-06-30T11:18:51.404Z,26.10
2018-06-30T11:21:19.660Z,25.90
2018-06-30T11:23:47.927Z,26.00
2018-06-30T11:26:16.176Z,25.80
2018-06-30T11:28:44.447Z,25.90
2018-06-30T11:31:12.719Z,26.10
2018-06-30T11:33:40.991Z,26.00
2018-06-30T11:36:09.231Z,26.00
2018-06-30T11:38:37.501Z,26.10
2018-06-30T11:41:05.793Z,26.40
2018-06-30T11:43:34.053Z,26.50
2018-06-30T11:46:02.313Z,26.60
2018-06-30T11:48:30.597Z,26.20
2018-06-30T11:50:58.912Z,26.10
2018-06-30T11:53:27.193Z,26.30
2018-06-30T11:55:55.485Z,26.30
2018-06-30T11:58:23.733Z,26.20
2018-06-30T12:00:51.982Z,26.00
2018-06-30T12:03:20.245Z,25.70
2018-06-30T12:05:48.517Z,25.60
2018-06-30T12:08:16.807Z,25.70
2018-06-30T12:10:45.091Z,25.80
2018-06-30T12:13:13.344Z,25.90
2018-06-30T12:15:41.604Z,26.10
2018-06-30T12:18:09.861Z,26.00
2018-06-30T12:20:38.112Z,25.90
2018-06-30T12:23:06.412Z,26.00
2018-06-30T12:25:34.656Z,26.10
2018-06-30T12:28:02.916Z,25.90
2018-06-30T12:30:31.176Z,25.80
2018-06-30T12:32:59.444Z,25.90
2018-06-30T12:35:27.691Z,26.20
2018-06-30T12:37:55.956Z,26.30
2018-06-30T12:40:24.225Z,26.40
2018-06-30T12:42:52.481Z,26.40
2018-06-30T12:45:20.744Z,26.10
2018-06-30T12:47:49.006Z,26.00
2018-06-30T12:50:17.256Z,25.70
2018-06-30T12:52:45.526Z,25.90
2018-06-30T12:55:13.785Z,26.00
2018-06-30T12:57:42.064Z,26.30
2018-06-30T13:00:10.356Z,26.30
2018-06-30T13:02:38.640Z,26.20
2018-06-30T13:05:06.936Z,26.30
2018-06-30T13:07:35.179Z,26.50
2018-06-30T13:10:03.524Z,26.80
2018-06-30T13:12:31.786Z,26.70
2018-06-30T13:15:00.071Z,26.40
2018-06-30T13:17:28.366Z,25.90
2018-06-30T13:19:59.655Z,25.70
2018-06-30T13:22:27.906Z,25.70
2018-06-30T13:24:56.217Z,25.70
2018-06-30T13:27:24.500Z,25.80
2018-06-30T13:29:52.748Z,25.70
2018-06-30T13:32:21.030Z,25.70
2018-06-30T13:34:49.287Z,25.70
2018-06-30T13:37:17.551Z,25.80
2018-06-30T13:39:45.870Z,25.50
2018-06-30T13:42:14.136Z,25.30
2018-06-30T13:44:42.385Z,25.60
2018-06-30T13:47:10.649Z,25.80
2018-06-30T13:49:38.932Z,25.90
2018-06-30T13:52:07.229Z,25.60
2018-06-30T13:54:35.525Z,25.70
2018-06-30T13:57:03.773Z,25.90
2018-06-30T13:59:32.053Z,26.00
2018-06-30T14:02:00.304Z,26.00
2018-06-30T14:04:28.593Z,26.00
2018-06-30T14:06:56.900Z,26.00
2018-06-30T14:09:25.173Z,25.70
2018-06-30T14:11:53.461Z,25.80
2018-06-30T14:14:21.739Z,25.80
2018-06-30T14:16:50.045Z,26.00
2018-06-30T14:19:18.292Z,26.00
2018-06-30T14:21:46.568Z,25.90
2018-06-30T14:24:14.842Z,26.00
2018-06-30T14:26:43.109Z,25.80
2018-06-30T14:29:11.380Z,25.90
2018-06-30T14:31:39.669Z,25.80
2018-06-30T14:34:07.949Z,26.10
2018-06-30T14:36:36.224Z,25.80
2018-06-30T14:39:08.304Z,25.80
2018-06-30T14:41:36.672Z,25.60
2018-06-30T14:44:05.150Z,25.60
2018-06-30T14:46:33.444Z,25.80
2018-06-30T14:49:01.764Z,26.10
2018-06-30T14:51:30.030Z,26.10
2018-06-30T14:53:58.318Z,26.30
2018-06-30T14:56:26.585Z,26.20
2018-06-30T14:58:54.875Z,26.10
2018-06-30T15:01:23.168Z,26.00
2018-06-30T15:03:51.444Z,26.00
2018-06-30T15:06:19.700Z,26.00
2018-06-30T15:08:47.976Z,25.90
2018-06-30T15:11:16.284Z,25.90
2018-06-30T15:13:44.533Z,26.00
2018-06-30T15:16:12.844Z,25.90
2018-06-30T15:18:41.080Z,26.00
2018-06-30T15:21:09.344Z,25.70
2018-06-30T15:23:37.615Z,25.80
2018-06-30T15:26:05.900Z,25.70
2018-06-30T15:28:34.176Z,25.70
2018-06-30T15:31:02.442Z,25.70
2018-06-30T15:33:30.697Z,25.80
2018-06-30T15:35:58.998Z,25.60
2018-06-30T15:38:27.224Z,25.50
2018-06-30T15:40:55.484Z,25.40
2018-06-30T15:43:23.777Z,25.50
2018-06-30T15:45:52.039Z,25.80
2018-06-30T15:48:20.309Z,26.00
2018-06-30T15:50:48.570Z,26.60
2018-06-30T15:53:16.836Z,27.60
2018-06-30T15:55:45.105Z,28.70
2018-06-30T15:58:13.368Z,29.10
2018-06-30T16:00:41.627Z,29.80
2018-06-30T16:03:09.892Z,30.60
2018-06-30T16:05:38.168Z,30.70
2018-06-30T16:08:06.420Z,29.90
2018-06-30T16:10:34.686Z,29.70
2018-06-30T16:13:02.949Z,30.30
2018-06-30T16:15:31.264Z,30.90
2018-06-30T16:17:59.517Z,31.70
2018-06-30T16:20:27.788Z,31.80
2018-06-30T16:22:56.047Z,31.50
2018-06-30T16:25:24.301Z,31.30
2018-06-30T16:27:52.544Z,32.30
2018-06-30T16:30:21.681Z,32.40
2018-06-30T16:32:49.964Z,33.00
2018-06-30T16:35:18.256Z,32.70
2018-06-30T16:37:46.501Z,32.70
2018-06-30T16:40:14.787Z,32.80
2018-06-30T16:42:43.048Z,32.60
2018-06-30T16:45:11.292Z,32.40
2018-06-30T16:47:39.600Z,32.50
2018-06-30T16:50:07.883Z,32.20
2018-06-30T16:52:36.141Z,31.80
2018-06-30T16:55:04.461Z,32.00
2018-06-30T16:57:32.710Z,32.20
2018-06-30T17:00:00.984Z,32.10
2018-06-30T17:02:29.258Z,31.50
2018-06-30T17:04:57.511Z,31.10
2018-06-30T17:07:25.761Z,31.60
2018-06-30T17:09:54.036Z,32.00
2018-06-30T17:12:22.293Z,32.80
2018-06-30T17:14:50.624Z,33.10
2018-06-30T17:17:18.845Z,33.40
2018-06-30T17:19:47.117Z,32.30
2018-06-30T17:22:15.380Z,32.00
2018-06-30T17:24:43.697Z,32.10
2018-06-30T17:27:11.957Z,31.20
2018-06-30T17:29:40.208Z,30.80
2018-06-30T17:32:08.472Z,30.30
2018-06-30T17:34:36.725Z,30.00
2018-06-30T17:37:04.988Z,29.60
2018-06-30T17:39:33.223Z,29.70
2018-06-30T17:42:01.479Z,29.30
2018-06-30T17:44:29.768Z,29.80
2018-06-30T17:46:58.013Z,30.60
2018-06-30T17:49:26.280Z,30.70
2018-06-30T17:51:54.543Z,30.30
2018-06-30T17:54:22.803Z,29.80
2018-06-30T17:56:51.077Z,29.50
2018-06-30T17:59:19.359Z,28.90
2018-06-30T18:01:47.643Z,29.20
2018-06-30T18:04:15.892Z,28.80
2018-06-30T18:06:44.154Z,29.10
2018-06-30T18:09:12.748Z,28.80
2018-06-30T18:11:41.532Z,28.30
2018-06-30T18:14:10.016Z,28.50
2018-06-30T18:19:41.570Z,28.70
2018-06-30T18:22:09.983Z,28.40
2018-06-30T18:24:38.313Z,28.20
2018-06-30T18:27:06.722Z,27.60
2018-06-30T18:29:35.129Z,27.10
2018-06-30T18:32:03.553Z,26.70
2018-06-30T18:34:31.873Z,26.60
2018-06-30T18:37:00.184Z,26.10
2018-06-30T18:39:28.510Z,25.50
2018-06-30T18:41:56.814Z,24.80
2018-06-30T18:44:25.139Z,24.00
2018-06-30T18:46:53.602Z,23.50
2018-06-30T18:49:21.871Z,23.00
2018-06-30T18:51:50.187Z,22.60
2018-06-30T18:54:18.460Z,22.50
2018-06-30T18:56:46.734Z,22.20
2018-06-30T18:59:15.076Z,22.00
2018-06-30T19:01:43.370Z,21.90
2018-06-30T19:04:11.664Z,21.70
2018-06-30T19:06:39.957Z,21.60
2018-06-30T19:09:09.597Z,21.40
2018-06-30T19:11:37.916Z,21.30
2018-06-30T19:14:06.545Z,21.20
2018-06-30T19:16:34.820Z,21.10
2018-06-30T19:19:03.092Z,21.00
2018-06-30T19:21:31.407Z,20.90
2018-06-30T19:23:59.722Z,20.80
2018-06-30T19:26:27.996Z,20.70
2018-06-30T19:28:56.253Z,20.60
2018-06-30T19:31:24.508Z,20.60
2018-06-30T19:33:52.813Z,20.50
2018-06-30T19:36:21.081Z,20.50
2018-06-30T19:38:49.361Z,20.40
2018-06-30T19:41:17.619Z,20.30
2018-06-30T19:43:45.916Z,20.20
2018-06-30T19:46:14.179Z,20.10
2018-06-30T19:48:42.436Z,20.00
2018-06-30T19:51:10.685Z,20.00
2018-06-30T19:53:38.983Z,19.90
2018-06-30T19:56:07.242Z,19.80
2018-06-30T19:58:35.512Z,19.80
2018-06-30T20:01:03.789Z,19.70
2018-06-30T20:03:32.047Z,19.70
2018-06-30T20:06:00.336Z,19.60
2018-06-30T20:08:29.180Z,19.60
2018-06-30T20:10:57.449Z,19.50
2018-06-30T20:13:25.801Z,19.50
2018-06-30T20:15:54.104Z,19.50
2018-06-30T20:18:22.384Z,19.40
2018-06-30T20:20:50.663Z,19.20
2018-06-30T20:23:18.897Z,19.20
2018-06-30T20:25:47.141Z,19.10
2018-06-30T20:28:15.445Z,19.00
2018-06-30T20:30:43.732Z,18.90
2018-06-30T20:33:12.018Z,18.80
2018-06-30T20:35:40.300Z,18.80
2018-06-30T20:38:08.577Z,18.70
2018-06-30T20:40:36.847Z,18.70
2018-06-30T20:43:05.222Z,18.60
2018-06-30T20:45:33.525Z,18.60
2018-06-30T20:48:01.797Z,18.60
2018-06-30T20:50:30.083Z,18.50
2018-06-30T20:52:58.348Z,18.40
2018-06-30T20:55:26.619Z,18.50
2018-06-30T20:57:54.892Z,18.40
2018-06-30T21:00:23.148Z,18.30
2018-06-30T21:02:51.440Z,18.30
2018-06-30T21:05:19.692Z,18.30
2018-06-30T21:07:47.943Z,18.20
2018-06-30T21:10:16.240Z,18.10
2018-06-30T21:12:44.545Z,18.00
2018-06-30T21:15:12.796Z,18.00
2018-06-30T21:17:41.101Z,17.90
2018-06-30T21:20:09.342Z,17.90
2018-06-30T21:22:37.616Z,17.80
2018-06-30T21:25:05.945Z,17.80
2018-06-30T21:27:34.224Z,17.70
2018-06-30T21:30:02.509Z,17.60
2018-06-30T21:32:30.778Z,17.60
2018-06-30T21:34:59.056Z,17.60
2018-06-30T21:37:27.361Z,17.50
2018-06-30T21:39:55.629Z,17.40
2018-06-30T21:42:23.883Z,17.40
2018-06-30T21:44:52.186Z,17.30
2018-06-30T21:47:20.520Z,17.30
2018-06-30T21:49:48.788Z,17.20
2018-06-30T21:52:17.212Z,17.20
2018-06-30T21:54:45.473Z,17.10
2018-06-30T21:57:13.821Z,17.10
2018-06-30T21:59:42.067Z,17.10
2018-06-30T22:02:10.373Z,17.00
2018-06-30T22:04:38.913Z,16.90
2018-06-30T22:07:07.174Z,16.80
2018-06-30T22:09:35.438Z,16.80
2018-06-30T22:12:03.758Z,16.80
2018-06-30T22:14:32.012Z,16.70
2018-06-30T22:17:00.377Z,16.70
2018-06-30T22:19:28.645Z,16.60
2018-06-30T22:24:31.493Z,16.50
2018-06-30T22:26:59.764Z,16.40
2018-06-30T22:29:28.029Z,16.40
2018-06-30T22:31:56.297Z,16.40
2018-06-30T22:34:24.612Z,16.30
2018-06-30T22:36:52.904Z,16.30
2018-06-30T22:39:32.324Z,16.30
2018-06-30T22:42:00.580Z,16.20
2018-06-30T22:44:28.841Z,16.10
2018-06-30T22:46:57.119Z,16.10
2018-06-30T22:49:25.382Z,16.00
2018-06-30T22:51:53.636Z,15.90
2018-06-30T22:54:21.908Z,15.90
2018-06-30T22:56:50.189Z,15.90
2018-06-30T22:59:18.448Z,15.90
2018-06-30T23:01:46.708Z,15.80
2018-06-30T23:04:14.988Z,15.70
2018-06-30T23:06:43.265Z,15.70
2018-06-30T23:09:11.544Z,15.70
2018-06-30T23:11:39.809Z,15.60
2018-06-30T23:14:08.053Z,15.70
2018-06-30T23:16:36.344Z,15.60
2018-06-30T23:19:04.769Z,15.60
2018-06-30T23:21:33.026Z,15.50
2018-06-30T23:24:01.289Z,15.50
2018-06-30T23:26:29.556Z,15.40
2018-06-30T23:28:57.821Z,15.40
2018-06-30T23:31:26.084Z,15.30
2018-06-30T23:33:54.342Z,15.30
2018-06-30T23:36:22.600Z,15.20
2018-06-30T23:38:50.861Z,15.30
2018-06-30T23:41:19.120Z,15.20
2018-06-30T23:43:47.415Z,15.20
2018-06-30T23:46:15.665Z,15.10
2018-06-30T23:48:43.929Z,15.10
2018-06-30T23:51:12.208Z,15.00
2018-06-30T23:53:40.476Z,15.00
2018-06-30T23:56:08.756Z,14.90
2018-06-30T23:58:37.016Z,14.90
